createdAt,value
2023-05-04T00:00:09.080Z,11.10
2023-05-04T00:02:36.156Z,11.10
2023-05-04T00:05:06.046Z,11.10
2023-05-04T00:07:33.045Z,11.10
2023-05-04T00:10:01.284Z,11.20
2023-05-04T00:12:28.593Z,11.20
2023-05-04T00:14:55.655Z,11.20
2023-05-04T00:17:22.536Z,11.20
2023-05-04T00:19:49.395Z,11.20
2023-05-04T00:22:16.969Z,11.20
2023-05-04T00:24:46.693Z,11.10
2023-05-04T00:27:13.452Z,11.10
2023-05-04T00:29:40.330Z,11.10
2023-05-04T00:32:07.301Z,11.10
2023-05-04T00:34:34.284Z,11.00
2023-05-04T00:37:01.302Z,11.00
2023-05-04T00:39:28.123Z,11.00
2023-05-04T00:41:55.026Z,11.00
2023-05-04T00:44:24.025Z,11.00
2023-05-04T00:46:55.278Z,11.00
2023-05-04T00:49:22.721Z,10.90
2023-05-04T00:51:51.047Z,10.90
2023-05-04T00:54:19.001Z,10.90
2023-05-04T00:56:46.272Z,10.80
2023-05-04T00:59:14.073Z,10.80
2023-05-04T01:01:41.757Z,10.70
2023-05-04T01:04:09.035Z,10.80
2023-05-04T01:06:44.703Z,10.70
2023-05-04T01:09:34.137Z,10.70
2023-05-04T01:12:04.003Z,10.60
2023-05-04T01:14:34.821Z,10.60
2023-05-04T01:17:05.195Z,10.60
2023-05-04T01:19:32.652Z,10.50
2023-05-04T01:21:59.499Z,10.50
2023-05-04T01:24:27.339Z,10.50
2023-05-04T01:27:17.068Z,10.50
2023-05-04T01:30:09.163Z,10.40
2023-05-04T01:32:36.975Z,10.30
2023-05-04T01:35:03.916Z,10.20
2023-05-04T01:37:30.849Z,10.20
2023-05-04T01:39:57.598Z,10.20
2023-05-04T01:42:24.379Z,10.20
2023-05-04T01:44:51.809Z,10.20
2023-05-04T01:47:18.728Z,10.20
2023-05-04T01:49:45.447Z,10.20
2023-05-04T01:52:12.519Z,10.10
2023-05-04T01:54:39.229Z,10.10
2023-05-04T01:57:06.042Z,10.00
2023-05-04T01:59:32.821Z,10.00
2023-05-04T02:01:59.726Z,10.00
2023-05-04T02:04:26.772Z,9.90
2023-05-04T02:06:53.599Z,10.00
2023-05-04T02:09:20.418Z,10.00
2023-05-04T02:11:47.262Z,10.00
2023-05-04T02:14:14.002Z,10.00
2023-05-04T02:16:40.980Z,10.00
2023-05-04T02:19:07.847Z,9.90
2023-05-04T02:21:35.350Z,9.90
2023-05-04T02:24:02.264Z,9.90
2023-05-04T02:26:29.053Z,9.80
2023-05-04T02:28:56.598Z,9.80
2023-05-04T02:31:23.487Z,9.90
2023-05-04T02:33:51.797Z,9.90
2023-05-04T02:36:18.548Z,9.90
2023-05-04T02:38:45.401Z,9.90
2023-05-04T02:41:12.278Z,9.90
2023-05-04T02:43:39.084Z,9.90
2023-05-04T02:46:05.925Z,10.00
2023-05-04T02:48:33.407Z,10.00
2023-05-04T02:51:00.148Z,9.90
2023-05-04T02:53:26.878Z,9.90
2023-05-04T02:55:53.601Z,9.90
2023-05-04T02:58:20.656Z,9.80
2023-05-04T03:00:47.510Z,9.90
2023-05-04T03:03:14.572Z,9.90
2023-05-04T03:05:41.396Z,9.80
2023-05-04T03:08:08.136Z,9.80
2023-05-04T03:10:34.910Z,9.80
2023-05-04T03:13:06.131Z,9.90
2023-05-04T03:15:33.577Z,9.80
2023-05-04T03:18:00.855Z,9.80
2023-05-04T03:20:27.699Z,9.80
2023-05-04T03:22:54.428Z,9.80
2023-05-04T03:25:21.255Z,9.70
2023-05-04T03:27:48.115Z,9.80
2023-05-04T03:30:15.050Z,9.70
2023-05-04T03:32:41.893Z,9.80
2023-05-04T03:35:09.357Z,9.70
2023-05-04T03:37:36.245Z,9.70
2023-05-04T03:40:03.638Z,9.60
2023-05-04T03:42:30.616Z,9.50
2023-05-04T03:44:57.349Z,9.60
2023-05-04T03:47:24.118Z,9.50
2023-05-04T03:49:50.857Z,9.50
2023-05-04T03:52:17.647Z,9.50
2023-05-04T03:54:44.399Z,9.50
2023-05-04T03:57:11.156Z,9.50
2023-05-04T03:59:37.984Z,9.50
2023-05-04T04:02:04.776Z,9.50
2023-05-04T04:04:31.677Z,9.60
2023-05-04T04:06:58.461Z,9.60
2023-05-04T04:09:25.250Z,9.60
2023-05-04T04:11:52.030Z,9.60
2023-05-04T04:14:18.824Z,9.60
2023-05-04T04:16:45.637Z,9.50
2023-05-04T04:19:12.493Z,9.30
2023-05-04T04:21:39.211Z,9.30
2023-05-04T04:24:06.307Z,9.30
2023-05-04T04:26:34.091Z,9.40
2023-05-04T04:29:00.932Z,9.50
2023-05-04T04:31:27.734Z,9.50
2023-05-04T04:33:54.505Z,9.50
2023-05-04T04:36:21.242Z,9.60
2023-05-04T04:38:48.159Z,9.80
2023-05-04T04:41:14.968Z,9.90
2023-05-04T04:43:41.704Z,10.00
2023-05-04T04:46:09.699Z,10.00
2023-05-04T04:48:36.566Z,9.90
2023-05-04T04:51:03.493Z,9.80
2023-05-04T04:53:30.466Z,9.80
2023-05-04T04:55:57.181Z,9.80
2023-05-04T04:58:23.938Z,9.70
2023-05-04T05:00:52.890Z,9.80
2023-05-04T05:03:19.889Z,9.80
2023-05-04T05:05:46.628Z,9.70
2023-05-04T05:08:13.437Z,9.70
2023-05-04T05:10:41.913Z,9.70
2023-05-04T05:13:10.038Z,9.80
2023-05-04T05:15:36.873Z,9.80
2023-05-04T05:18:03.836Z,9.80
2023-05-04T05:20:30.657Z,9.90
2023-05-04T05:22:57.448Z,9.90
2023-05-04T05:25:24.346Z,10.00
2023-05-04T05:27:51.166Z,10.10
2023-05-04T05:30:18.245Z,10.10
2023-05-04T05:32:46.483Z,10.20
2023-05-04T05:35:15.162Z,10.30
2023-05-04T05:37:42.338Z,10.40
2023-05-04T05:40:09.621Z,10.60
2023-05-04T05:42:36.738Z,10.60
2023-05-04T05:45:04.682Z,10.70
2023-05-04T05:47:31.675Z,10.90
2023-05-04T05:49:58.433Z,11.30
2023-05-04T05:52:25.324Z,11.50
2023-05-04T05:54:52.094Z,11.70
2023-05-04T05:57:20.182Z,11.80
2023-05-04T05:59:47.810Z,12.00
2023-05-04T06:02:14.997Z,12.20
2023-05-04T06:04:42.825Z,12.10
2023-05-04T06:07:09.675Z,12.10
2023-05-04T06:09:36.674Z,12.20
2023-05-04T06:12:05.038Z,12.00
2023-05-04T06:14:31.809Z,12.00
2023-05-04T06:16:59.001Z,12.10
2023-05-04T06:19:26.878Z,12.10
2023-05-04T06:21:54.338Z,12.20
2023-05-04T06:24:25.456Z,12.40
2023-05-04T06:26:52.205Z,12.70
2023-05-04T06:29:18.910Z,12.80
2023-05-04T06:31:48.262Z,13.00
2023-05-04T06:34:18.148Z,13.20
2023-05-04T06:36:45.370Z,13.50
2023-05-04T06:39:12.343Z,13.40
2023-05-04T06:41:39.117Z,13.50
2023-05-04T06:44:06.108Z,13.80
2023-05-04T06:46:37.350Z,14.10
2023-05-04T06:49:04.577Z,14.20
2023-05-04T06:51:32.117Z,14.30
2023-05-04T06:54:01.055Z,14.80
2023-05-04T06:56:27.802Z,14.90
2023-05-04T06:58:54.558Z,14.60
2023-05-04T07:01:21.466Z,14.40
2023-05-04T07:03:48.943Z,14.60
2023-05-04T07:06:15.762Z,14.70
2023-05-04T07:08:42.668Z,15.10
2023-05-04T07:11:10.363Z,15.60
2023-05-04T07:13:38.592Z,15.90
2023-05-04T07:16:08.941Z,15.80
2023-05-04T07:18:36.226Z,15.20
2023-05-04T07:21:21.894Z,15.10
2023-05-04T07:23:49.819Z,15.40
2023-05-04T07:26:16.666Z,15.80
2023-05-04T07:28:44.025Z,16.00
2023-05-04T07:31:13.016Z,16.00
2023-05-04T07:33:40.344Z,16.20
2023-05-04T07:36:07.533Z,16.50
2023-05-04T07:38:34.669Z,16.20
2023-05-04T07:41:01.521Z,16.30
2023-05-04T07:43:28.326Z,16.40
2023-05-04T07:45:55.170Z,16.20
2023-05-04T07:48:23.372Z,16.10
2023-05-04T07:50:51.454Z,16.00
2023-05-04T07:53:20.657Z,16.10
2023-05-04T07:55:48.356Z,16.50
2023-05-04T07:58:16.661Z,16.70
2023-05-04T08:00:43.570Z,17.00
2023-05-04T08:03:10.428Z,16.80
2023-05-04T08:05:37.339Z,16.50
2023-05-04T08:08:04.244Z,16.80
2023-05-04T08:10:30.998Z,16.90
2023-05-04T08:12:58.030Z,17.30
2023-05-04T08:15:24.996Z,17.60
2023-05-04T08:17:51.776Z,17.50
2023-05-04T08:20:18.677Z,17.30
2023-05-04T08:22:45.884Z,17.60
2023-05-04T08:25:12.865Z,17.70
2023-05-04T08:27:39.776Z,17.70
2023-05-04T08:30:07.297Z,17.90
2023-05-04T08:32:34.091Z,18.40
2023-05-04T08:35:00.980Z,18.60
2023-05-04T08:37:27.713Z,19.20
2023-05-04T08:39:54.460Z,18.90
2023-05-04T08:42:28.970Z,18.80
2023-05-04T08:44:59.190Z,19.30
2023-05-04T08:47:27.615Z,19.60
2023-05-04T08:49:55.401Z,19.30
2023-05-04T08:52:24.678Z,18.50
2023-05-04T08:54:56.340Z,18.40
2023-05-04T08:57:24.446Z,18.60
2023-05-04T08:59:53.566Z,18.70
2023-05-04T09:02:22.687Z,18.60
2023-05-04T09:04:53.404Z,19.10
2023-05-04T09:07:21.722Z,19.00
2023-05-04T09:09:50.918Z,19.50
2023-05-04T09:12:18.303Z,19.90
2023-05-04T09:14:46.628Z,20.20
2023-05-04T09:17:26.096Z,19.90
2023-05-04T09:20:03.770Z,19.90
2023-05-04T09:22:30.975Z,19.70
2023-05-04T09:25:12.485Z,19.70
2023-05-04T09:27:43.178Z,19.50
2023-05-04T09:30:12.549Z,19.60
2023-05-04T09:32:46.549Z,19.90
2023-05-04T09:35:25.265Z,20.20
2023-05-04T09:37:59.174Z,20.20
2023-05-04T09:40:37.765Z,19.90
2023-05-04T09:43:06.573Z,20.20
2023-05-04T09:45:43.959Z,19.90
2023-05-04T09:48:21.878Z,19.50
2023-05-04T09:50:51.577Z,19.90
2023-05-04T09:53:21.487Z,20.00
2023-05-04T09:55:56.099Z,20.20
2023-05-04T09:58:23.606Z,20.00
2023-05-04T10:00:50.925Z,20.00
2023-05-04T10:03:18.086Z,20.00
2023-05-04T10:05:45.319Z,19.90
2023-05-04T10:08:13.535Z,19.90
2023-05-04T10:10:40.555Z,20.10
2023-05-04T10:13:07.473Z,20.40
2023-05-04T10:15:34.778Z,20.30
2023-05-04T10:18:28.085Z,20.40
2023-05-04T10:21:17.902Z,20.40
2023-05-04T10:24:11.776Z,19.90
2023-05-04T10:27:00.791Z,20.10
2023-05-04T10:29:30.311Z,20.10
2023-05-04T10:31:57.396Z,20.40
2023-05-04T10:34:34.675Z,20.80
2023-05-04T10:37:03.386Z,20.60
2023-05-04T10:39:32.814Z,20.60
2023-05-04T10:42:07.171Z,20.60
2023-05-04T10:44:50.113Z,20.70
2023-05-04T10:47:33.821Z,20.00
2023-05-04T10:50:08.797Z,20.00
2023-05-04T10:52:49.870Z,19.70
2023-05-04T10:55:18.261Z,18.90
2023-05-04T10:57:50.145Z,18.90
2023-05-04T11:00:18.159Z,18.90
2023-05-04T11:02:47.335Z,19.10
2023-05-04T11:05:19.550Z,19.20
2023-05-04T11:07:50.885Z,18.90
2023-05-04T11:10:25.580Z,18.90
2023-05-04T11:12:55.172Z,18.80
2023-05-04T11:15:22.088Z,18.60
2023-05-04T11:17:51.065Z,18.70
2023-05-04T11:20:26.216Z,18.80
2023-05-04T11:22:53.954Z,18.80
2023-05-04T11:25:27.900Z,18.80
2023-05-04T11:27:54.629Z,18.60
2023-05-04T11:30:22.240Z,18.60
2023-05-04T11:32:54.112Z,18.70
2023-05-04T11:35:24.976Z,18.80
2023-05-04T11:37:52.216Z,18.70
2023-05-04T11:40:24.687Z,18.70
2023-05-04T11:42:56.637Z,18.80
2023-05-04T11:45:28.235Z,18.70
2023-05-04T11:47:56.572Z,18.80
2023-05-04T11:50:25.323Z,18.90
2023-05-04T11:52:52.124Z,18.90
2023-05-04T11:55:29.465Z,19.10
2023-05-04T11:58:05.256Z,19.20
2023-05-04T12:00:56.092Z,19.20
2023-05-04T12:03:48.032Z,19.20
2023-05-04T12:06:19.078Z,19.20
2023-05-04T12:08:46.069Z,19.40
2023-05-04T12:11:25.932Z,19.30
2023-05-04T12:14:30.998Z,19.30
2023-05-04T12:17:01.738Z,19.10
2023-05-04T12:19:28.623Z,19.10
2023-05-04T12:21:58.368Z,19.00
2023-05-04T12:24:27.692Z,19.20
2023-05-04T12:26:54.509Z,19.20
2023-05-04T12:29:21.368Z,19.40
2023-05-04T12:31:48.272Z,19.40
2023-05-04T12:34:15.145Z,19.50
2023-05-04T12:36:41.951Z,19.50
2023-05-04T12:39:09.748Z,19.60
2023-05-04T12:41:36.586Z,19.50
2023-05-04T12:44:03.423Z,19.50
2023-05-04T12:46:30.967Z,19.60
2023-05-04T12:48:57.744Z,19.80
2023-05-04T12:51:24.542Z,19.90
2023-05-04T12:53:51.474Z,19.80
2023-05-04T12:56:18.254Z,19.60
2023-05-04T12:58:44.974Z,19.70
2023-05-04T13:01:11.857Z,19.80
2023-05-04T13:03:38.861Z,19.90
2023-05-04T13:06:06.028Z,20.00
2023-05-04T13:08:33.610Z,20.10
2023-05-04T13:11:00.488Z,20.00
2023-05-04T13:13:29.296Z,20.10
2023-05-04T13:15:56.490Z,20.10
2023-05-04T13:18:27.216Z,20.20
2023-05-04T13:20:55.766Z,20.20
2023-05-04T13:23:23.108Z,20.30
2023-05-04T13:25:51.110Z,20.10
2023-05-04T13:28:18.766Z,20.20
2023-05-04T13:30:45.557Z,20.20
2023-05-04T13:33:27.335Z,20.30
2023-05-04T13:35:56.924Z,20.40
2023-05-04T13:38:23.808Z,20.30
2023-05-04T13:40:50.733Z,20.50
2023-05-04T13:43:17.594Z,20.60
2023-05-04T13:45:44.421Z,20.80
2023-05-04T13:48:11.333Z,20.70
2023-05-04T13:50:38.263Z,20.70
2023-05-04T13:53:05.026Z,20.70
2023-05-04T13:55:31.996Z,20.70
2023-05-04T13:57:58.784Z,20.40
2023-05-04T14:00:25.572Z,20.30
2023-05-04T14:02:52.543Z,20.50
2023-05-04T14:05:20.646Z,20.50
2023-05-04T14:07:47.418Z,20.60
2023-05-04T14:10:14.211Z,20.80
2023-05-04T14:12:41.064Z,21.00
2023-05-04T14:15:08.511Z,21.00
2023-05-04T14:17:35.540Z,20.90
2023-05-04T14:20:03.021Z,20.60
2023-05-04T14:22:29.765Z,20.50
2023-05-04T14:24:56.645Z,20.60
2023-05-04T14:27:24.036Z,20.70
2023-05-04T14:29:52.337Z,20.50
2023-05-04T14:32:19.413Z,20.50
2023-05-04T14:34:47.038Z,20.60
2023-05-04T14:37:13.891Z,20.70
2023-05-04T14:39:40.759Z,20.70
2023-05-04T14:42:07.533Z,20.80
2023-05-04T14:44:34.328Z,20.90
2023-05-04T14:47:04.851Z,20.90
2023-05-04T14:49:37.381Z,20.90
2023-05-04T14:52:04.881Z,20.80
2023-05-04T14:54:31.956Z,20.70
2023-05-04T14:56:59.928Z,20.70
2023-05-04T14:59:26.767Z,20.60
2023-05-04T15:01:55.020Z,20.60
2023-05-04T15:04:22.397Z,20.50
2023-05-04T15:06:49.559Z,20.50
2023-05-04T15:09:16.568Z,20.40
2023-05-04T15:11:43.422Z,20.30
2023-05-04T15:14:10.214Z,20.20
2023-05-04T15:16:37.111Z,20.30
2023-05-04T15:19:04.055Z,20.40
2023-05-04T15:21:31.712Z,20.50
2023-05-04T15:23:58.652Z,20.50
2023-05-04T15:26:25.772Z,20.40
2023-05-04T15:28:54.108Z,20.40
2023-05-04T15:31:21.677Z,20.50
2023-05-04T15:33:51.419Z,20.40
2023-05-04T15:36:18.237Z,20.50
2023-05-04T15:38:45.046Z,20.50
2023-05-04T15:41:13.780Z,20.50
2023-05-04T15:43:40.707Z,20.40
2023-05-04T15:46:07.516Z,20.50
2023-05-04T15:48:34.331Z,20.50
2023-05-04T15:51:01.250Z,20.40
2023-05-04T15:53:28.062Z,20.40
2023-05-04T15:55:54.932Z,20.20
2023-05-04T15:58:21.718Z,20.30
2023-05-04T16:00:48.573Z,20.30
2023-05-04T16:03:15.628Z,20.30
2023-05-04T16:05:42.495Z,20.30
2023-05-04T16:08:09.350Z,20.30
2023-05-04T16:10:36.277Z,20.30
2023-05-04T16:13:05.270Z,20.30
2023-05-04T16:15:32.172Z,20.30
2023-05-04T16:17:58.997Z,20.20
2023-05-04T16:20:28.358Z,20.10
2023-05-04T16:22:55.169Z,20.10
2023-05-04T16:25:22.008Z,19.90
2023-05-04T16:27:48.784Z,20.00
2023-05-04T16:30:15.858Z,20.00
2023-05-04T16:32:42.655Z,20.00
2023-05-04T16:35:09.753Z,20.00
2023-05-04T16:37:37.790Z,20.00
2023-05-04T16:40:15.349Z,20.00
2023-05-04T16:42:43.209Z,20.00
2023-05-04T16:45:13.864Z,19.90
2023-05-04T16:47:44.551Z,19.90
2023-05-04T16:50:12.631Z,19.90
2023-05-04T16:52:40.332Z,19.90
2023-05-04T16:55:10.668Z,19.90
2023-05-04T16:57:38.479Z,19.90
2023-05-04T17:00:07.424Z,19.80
2023-05-04T17:02:35.407Z,19.80
2023-05-04T17:05:04.637Z,19.70
2023-05-04T17:07:31.475Z,19.70
2023-05-04T17:09:58.464Z,19.60
2023-05-04T17:12:25.352Z,19.50
2023-05-04T17:14:52.073Z,19.50
2023-05-04T17:17:18.825Z,19.40
2023-05-04T17:19:46.196Z,19.30
2023-05-04T17:22:12.970Z,19.40
2023-05-04T17:24:39.770Z,19.40
2023-05-04T17:27:06.623Z,19.40
2023-05-04T17:29:33.375Z,19.30
2023-05-04T17:32:00.279Z,19.30
2023-05-04T17:34:27.130Z,19.30
2023-05-04T17:36:54.019Z,19.20
2023-05-04T17:39:20.878Z,19.20
2023-05-04T17:41:57.067Z,19.20
2023-05-04T17:44:28.873Z,19.20
2023-05-04T17:46:55.922Z,19.20
2023-05-04T17:49:22.763Z,19.10
2023-05-04T17:51:49.536Z,19.00
2023-05-04T17:54:17.071Z,19.00
2023-05-04T17:56:43.982Z,19.00
2023-05-04T17:59:10.746Z,18.90
2023-05-04T18:01:37.600Z,18.80
2023-05-04T18:04:04.727Z,18.70
2023-05-04T18:06:32.739Z,18.70
2023-05-04T18:09:00.845Z,18.60
2023-05-04T18:11:27.820Z,18.50
2023-05-04T18:13:56.606Z,18.40
2023-05-04T18:16:24.561Z,18.40
2023-05-04T18:18:52.025Z,18.30
2023-05-04T18:21:18.983Z,18.30
2023-05-04T18:23:46.370Z,18.20
2023-05-04T18:26:22.338Z,18.20
2023-05-04T18:28:49.415Z,18.10
2023-05-04T18:31:16.416Z,18.00
2023-05-04T18:33:43.230Z,18.00
2023-05-04T18:36:10.100Z,17.90
2023-05-04T18:38:37.233Z,17.90
2023-05-04T18:41:05.104Z,17.80
2023-05-04T18:43:31.936Z,17.70
2023-05-04T18:46:05.593Z,17.60
2023-05-04T18:48:32.401Z,17.60
2023-05-04T18:50:59.181Z,17.50
2023-05-04T18:53:26.505Z,17.40
2023-05-04T18:56:19.525Z,17.40
2023-05-04T18:58:46.358Z,17.30
2023-05-04T19:01:13.573Z,17.30
2023-05-04T19:03:40.537Z,17.20
2023-05-04T19:06:07.828Z,17.20
2023-05-04T19:08:34.558Z,17.10
2023-05-04T19:11:03.283Z,17.20
2023-05-04T19:13:30.320Z,17.10
2023-05-04T19:15:57.357Z,17.10
2023-05-04T19:18:24.658Z,17.00
2023-05-04T19:20:51.710Z,17.00
2023-05-04T19:23:18.591Z,17.00
2023-05-04T19:25:45.459Z,16.90
2023-05-04T19:28:12.482Z,17.00
2023-05-04T19:30:39.956Z,16.90
2023-05-04T19:33:08.423Z,16.90
2023-05-04T19:35:35.794Z,16.80
2023-05-04T19:38:02.715Z,16.80
2023-05-04T19:40:29.525Z,16.70
2023-05-04T19:42:56.372Z,16.70
2023-05-04T19:45:23.289Z,16.60
2023-05-04T19:47:50.903Z,16.60
2023-05-04T19:50:18.002Z,16.50
2023-05-04T19:52:44.919Z,16.50
2023-05-04T19:55:11.904Z,16.50
2023-05-04T19:57:38.887Z,16.50
2023-05-04T20:00:06.531Z,16.60
2023-05-04T20:02:33.514Z,16.60
2023-05-04T20:05:00.276Z,16.50
2023-05-04T20:07:27.326Z,16.50
2023-05-04T20:09:54.435Z,16.50
2023-05-04T20:12:21.573Z,16.50
2023-05-04T20:14:48.356Z,16.50
2023-05-04T20:17:15.957Z,16.40
2023-05-04T20:19:43.057Z,16.40
2023-05-04T20:22:10.066Z,16.30
2023-05-04T20:24:36.781Z,16.30
2023-05-04T20:27:03.834Z,16.20
2023-05-04T20:29:30.588Z,16.20
2023-05-04T20:31:57.515Z,16.10
2023-05-04T20:34:24.346Z,16.00
2023-05-04T20:36:51.212Z,15.90
2023-05-04T20:39:18.068Z,15.90
2023-05-04T20:41:44.891Z,15.80
2023-05-04T20:44:11.917Z,15.80
2023-05-04T20:46:38.972Z,15.70
2023-05-04T20:49:05.828Z,15.70
2023-05-04T20:51:32.811Z,15.70
2023-05-04T20:53:59.677Z,15.70
2023-05-04T20:56:26.727Z,15.70
2023-05-04T20:58:53.641Z,15.70
2023-05-04T21:01:20.682Z,15.70
2023-05-04T21:03:47.717Z,15.70
2023-05-04T21:06:14.590Z,15.60
2023-05-04T21:08:41.530Z,15.60
2023-05-04T21:11:08.321Z,15.60
2023-05-04T21:13:35.110Z,15.60
2023-05-04T21:16:02.011Z,15.60
2023-05-04T21:18:28.861Z,15.60
2023-05-04T21:20:55.880Z,15.60
2023-05-04T21:23:23.768Z,15.60
2023-05-04T21:25:50.562Z,15.60
2023-05-04T21:28:17.311Z,15.50
2023-05-04T21:30:44.070Z,15.50
2023-05-04T21:33:10.990Z,15.40
2023-05-04T21:35:37.757Z,15.40
2023-05-04T21:38:04.566Z,15.40
2023-05-04T21:40:31.704Z,15.40
2023-05-04T21:42:59.205Z,15.30
2023-05-04T21:45:26.164Z,15.30
2023-05-04T21:47:53.167Z,15.20
2023-05-04T21:50:22.271Z,15.20
2023-05-04T21:52:49.052Z,15.20
2023-05-04T21:55:18.808Z,15.20
2023-05-04T21:57:45.731Z,15.10
2023-05-04T22:00:17.672Z,15.00
2023-05-04T22:02:45.107Z,14.90
2023-05-04T22:05:12.322Z,14.90
2023-05-04T22:07:39.043Z,14.90
2023-05-04T22:10:06.648Z,14.90
2023-05-04T22:12:33.697Z,14.80
2023-05-04T22:15:00.638Z,14.80
2023-05-04T22:17:27.412Z,14.70
2023-05-04T22:19:54.201Z,14.60
2023-05-04T22:22:20.936Z,14.50
2023-05-04T22:24:47.738Z,14.50
2023-05-04T22:27:14.475Z,14.50
2023-05-04T22:29:41.368Z,14.50
2023-05-04T22:32:08.079Z,14.40
2023-05-04T22:34:34.820Z,14.30
2023-05-04T22:37:03.207Z,14.30
2023-05-04T22:39:29.901Z,14.30
2023-05-04T22:41:56.702Z,14.20
2023-05-04T22:44:23.443Z,14.10
2023-05-04T22:46:50.185Z,14.10
2023-05-04T22:49:17.433Z,14.10
2023-05-04T22:51:44.281Z,14.10
2023-05-04T22:54:11.084Z,14.00
2023-05-04T22:56:37.961Z,14.00
2023-05-04T22:59:06.285Z,13.90
2023-05-04T23:01:33.166Z,13.80
2023-05-04T23:03:59.941Z,13.70
2023-05-04T23:06:28.462Z,13.60
2023-05-04T23:08:55.361Z,13.50
2023-05-04T23:11:22.550Z,13.50
2023-05-04T23:13:49.360Z,13.50
2023-05-04T23:16:16.265Z,13.50
2023-05-04T23:18:43.152Z,13.50
2023-05-04T23:21:09.848Z,13.50
2023-05-04T23:23:36.690Z,13.40
2023-05-04T23:26:03.575Z,13.40
2023-05-04T23:28:30.441Z,13.40
2023-05-04T23:30:57.188Z,13.40
2023-05-04T23:33:24.020Z,13.40
2023-05-04T23:35:54.748Z,13.40
2023-05-04T23:38:22.080Z,13.40
2023-05-04T23:40:49.140Z,13.40
2023-05-04T23:43:15.916Z,13.30
2023-05-04T23:45:42.768Z,13.30
2023-05-04T23:48:09.714Z,13.20
2023-05-04T23:50:36.651Z,13.10
2023-05-04T23:53:03.571Z,13.10
2023-05-04T23:55:30.329Z,13.10
2023-05-04T23:57:57.543Z,13.10
